sensor_id;sensor_type;location;lat;lon;timestamp;pressure;altitude;pressure_sealevel;temperature;humidity
64192;BME280;50497;50.720;-2.084;2022-07-23T00:00:12;101974.28;;;15.02;100.00
64192;BME280;50497;50.720;-2.084;2022-07-23T00:02:38;101964.81;;;14.93;100.00
64192;BME280;50497;50.720;-2.084;2022-07-23T00:05:07;101971.66;;;14.82;100.00
64192;BME280;50497;50.720;-2.084;2022-07-23T00:07:34;101973.22;;;14.86;100.00
64192;BME280;50497;50.720;-2.084;2022-07-23T00:09:59;101972.91;;;14.93;100.00
64192;BME280;50497;50.720;-2.084;2022-07-23T00:12:25;101977.22;;;14.98;100.00
64192;BME280;50497;50.720;-2.084;2022-07-23T00:14:51;101985.88;;;15.04;100.00
64192;BME280;50497;50.720;-2.084;2022-07-23T00:17:25;101984.06;;;15.05;100.00
64192;BME280;50497;50.720;-2.084;2022-07-23T00:19:51;101986.09;;;15.00;100.00
64192;BME280;50497;50.720;-2.084;2022-07-23T00:22:19;101990.31;;;15.05;100.00
64192;BME280;50497;50.720;-2.084;2022-07-23T00:24:52;101986.47;;;15.11;100.00
64192;BME280;50497;50.720;-2.084;2022-07-23T00:27:18;101986.81;;;15.22;100.00
64192;BME280;50497;50.720;-2.084;2022-07-23T00:29:48;101986.84;;;15.41;100.00
64192;BME280;50497;50.720;-2.084;2022-07-23T00:32:16;101990.41;;;15.42;100.00
64192;BME280;50497;50.720;-2.084;2022-07-23T00:34:41;101993.19;;;15.40;100.00
64192;BME280;50497;50.720;-2.084;2022-07-23T00:37:07;101975.91;;;15.44;100.00
64192;BME280;50497;50.720;-2.084;2022-07-23T00:39:36;101981.44;;;15.41;100.00
64192;BME280;50497;50.720;-2.084;2022-07-23T00:42:06;101977.31;;;15.34;100.00
64192;BME280;50497;50.720;-2.084;2022-07-23T00:44:38;101965.44;;;15.19;100.00
64192;BME280;50497;50.720;-2.084;2022-07-23T00:47:08;101979.72;;;15.21;100.00
64192;BME280;50497;50.720;-2.084;2022-07-23T00:49:34;101980.84;;;15.15;100.00
64192;BME280;50497;50.720;-2.084;2022-07-23T00:52:03;101976.50;;;15.13;100.00
64192;BME280;50497;50.720;-2.084;2022-07-23T00:54:30;101973.00;;;15.11;100.00
64192;BME280;50497;50.720;-2.084;2022-07-23T00:56:56;101973.81;;;14.92;100.00
64192;BME280;50497;50.720;-2.084;2022-07-23T00:59:22;101972.03;;;14.93;100.00
64192;BME280;50497;50.720;-2.084;2022-07-23T01:01:51;101977.75;;;14.85;100.00
64192;BME280;50497;50.720;-2.084;2022-07-23T01:04:17;101969.88;;;14.81;100.00
64192;BME280;50497;50.720;-2.084;2022-07-23T01:06:44;101969.63;;;14.87;100.00
64192;BME280;50497;50.720;-2.084;2022-07-23T01:09:10;101956.06;;;14.88;100.00
64192;BME280;50497;50.720;-2.084;2022-07-23T01:11:37;101951.19;;;14.77;100.00
64192;BME280;50497;50.720;-2.084;2022-07-23T01:14:15;101953.44;;;14.68;100.00
64192;BME280;50497;50.720;-2.084;2022-07-23T01:16:42;101953.94;;;14.55;100.00
64192;BME280;50497;50.720;-2.084;2022-07-23T01:19:09;101954.00;;;14.54;100.00
64192;BME280;50497;50.720;-2.084;2022-07-23T01:21:52;101944.44;;;14.47;100.00
64192;BME280;50497;50.720;-2.084;2022-07-23T01:24:18;101945.88;;;14.35;100.00
64192;BME280;50497;50.720;-2.084;2022-07-23T01:26:49;101933.88;;;14.21;100.00
64192;BME280;50497;50.720;-2.084;2022-07-23T01:29:15;101931.66;;;14.11;100.00
64192;BME280;50497;50.720;-2.084;2022-07-23T01:31:42;101937.03;;;14.11;100.00
64192;BME280;50497;50.720;-2.084;2022-07-23T01:34:08;101951.50;;;14.08;100.00
64192;BME280;50497;50.720;-2.084;2022-07-23T01:36:38;101953.53;;;14.03;100.00
64192;BME280;50497;50.720;-2.084;2022-07-23T01:39:08;101955.53;;;13.98;100.00
64192;BME280;50497;50.720;-2.084;2022-07-23T01:41:34;101948.53;;;13.94;100.00
64192;BME280;50497;50.720;-2.084;2022-07-23T01:44:03;101948.72;;;13.89;100.00
64192;BME280;50497;50.720;-2.084;2022-07-23T01:46:32;101944.34;;;13.86;100.00
64192;BME280;50497;50.720;-2.084;2022-07-23T01:48:58;101950.66;;;13.85;100.00
64192;BME280;50497;50.720;-2.084;2022-07-23T01:51:27;101948.09;;;13.82;100.00
64192;BME280;50497;50.720;-2.084;2022-07-23T01:53:57;101939.53;;;13.73;100.00
64192;BME280;50497;50.720;-2.084;2022-07-23T01:56:26;101959.19;;;13.75;100.00
64192;BME280;50497;50.720;-2.084;2022-07-23T01:58:52;101960.25;;;13.71;100.00
64192;BME280;50497;50.720;-2.084;2022-07-23T02:01:21;101952.34;;;13.66;100.00
64192;BME280;50497;50.720;-2.084;2022-07-23T02:03:51;101948.00;;;13.63;100.00
64192;BME280;50497;50.720;-2.084;2022-07-23T02:06:21;101946.47;;;13.56;100.00
64192;BME280;50497;50.720;-2.084;2022-07-23T02:08:50;101944.63;;;13.58;100.00
64192;BME280;50497;50.720;-2.084;2022-07-23T02:11:16;101940.22;;;13.56;100.00
64192;BME280;50497;50.720;-2.084;2022-07-23T02:13:42;101944.78;;;13.54;100.00
64192;BME280;50497;50.720;-2.084;2022-07-23T02:16:08;101944.56;;;13.60;100.00
64192;BME280;50497;50.720;-2.084;2022-07-23T02:18:37;101955.44;;;13.57;100.00
64192;BME280;50497;50.720;-2.084;2022-07-23T02:21:03;101941.47;;;13.47;100.00
64192;BME280;50497;50.720;-2.084;2022-07-23T02:23:29;101951.09;;;13.53;100.00
64192;BME280;50497;50.720;-2.084;2022-07-23T02:25:59;101959.00;;;13.57;100.00
64192;BME280;50497;50.720;-2.084;2022-07-23T02:28:31;101964.53;;;13.53;100.00
64192;BME280;50497;50.720;-2.084;2022-07-23T02:31:01;101960.25;;;13.48;100.00
64192;BME280;50497;50.720;-2.084;2022-07-23T02:33:39;101955.84;;;13.46;100.00
64192;BME280;50497;50.720;-2.084;2022-07-23T02:36:09;101956.19;;;13.38;100.00
64192;BME280;50497;50.720;-2.084;2022-07-23T02:38:34;101966.31;;;13.30;100.00
64192;BME280;50497;50.720;-2.084;2022-07-23T02:41:02;101960.94;;;13.30;100.00
64192;BME280;50497;50.720;-2.084;2022-07-23T02:43:29;101970.94;;;13.26;100.00
64192;BME280;50497;50.720;-2.084;2022-07-23T02:45:55;101953.94;;;13.26;100.00
64192;BME280;50497;50.720;-2.084;2022-07-23T02:48:24;101956.44;;;13.30;100.00
64192;BME280;50497;50.720;-2.084;2022-07-23T02:50:50;101952.13;;;13.26;100.00
64192;BME280;50497;50.720;-2.084;2022-07-23T02:53:17;101957.41;;;13.28;100.00
64192;BME280;50497;50.720;-2.084;2022-07-23T02:55:42;101948.59;;;13.24;100.00
64192;BME280;50497;50.720;-2.084;2022-07-23T02:58:12;101952.75;;;13.09;100.00
64192;BME280;50497;50.720;-2.084;2022-07-23T03:00:38;101954.75;;;13.04;100.00
64192;BME280;50497;50.720;-2.084;2022-07-23T03:03:05;101960.88;;;13.08;100.00
64192;BME280;50497;50.720;-2.084;2022-07-23T03:05:35;101961.13;;;13.02;100.00
64192;BME280;50497;50.720;-2.084;2022-07-23T03:08:02;101969.00;;;12.83;100.00
64192;BME280;50497;50.720;-2.084;2022-07-23T03:10:32;101969.47;;;12.94;100.00
64192;BME280;50497;50.720;-2.084;2022-07-23T03:13:01;101962.00;;;13.02;100.00
64192;BME280;50497;50.720;-2.084;2022-07-23T03:15:26;101959.53;;;12.96;100.00
64192;BME280;50497;50.720;-2.084;2022-07-23T03:17:55;101973.22;;;12.90;100.00
64192;BME280;50497;50.720;-2.084;2022-07-23T03:20:28;101962.41;;;12.91;100.00
64192;BME280;50497;50.720;-2.084;2022-07-23T03:23:01;101970.44;;;12.91;100.00
64192;BME280;50497;50.720;-2.084;2022-07-23T03:25:26;101957.66;;;12.74;100.00
64192;BME280;50497;50.720;-2.084;2022-07-23T03:27:52;101956.03;;;12.70;100.00
64192;BME280;50497;50.720;-2.084;2022-07-23T03:30:19;101962.91;;;12.54;100.00
64192;BME280;50497;50.720;-2.084;2022-07-23T03:32:44;101970.84;;;12.57;100.00
64192;BME280;50497;50.720;-2.084;2022-07-23T03:35:14;101972.78;;;12.53;100.00
64192;BME280;50497;50.720;-2.084;2022-07-23T03:37:45;101958.69;;;12.47;100.00
64192;BME280;50497;50.720;-2.084;2022-07-23T03:40:18;101959.78;;;12.41;100.00
64192;BME280;50497;50.720;-2.084;2022-07-23T03:42:48;101964.28;;;12.41;100.00
64192;BME280;50497;50.720;-2.084;2022-07-23T03:45:18;101968.88;;;12.37;100.00
64192;BME280;50497;50.720;-2.084;2022-07-23T03:47:47;101969.94;;;12.31;100.00
64192;BME280;50497;50.720;-2.084;2022-07-23T03:50:13;101963.06;;;12.24;100.00
64192;BME280;50497;50.720;-2.084;2022-07-23T03:52:39;101967.66;;;12.20;100.00
64192;BME280;50497;50.720;-2.084;2022-07-23T03:55:11;101964.50;;;12.08;100.00
64192;BME280;50497;50.720;-2.084;2022-07-23T03:57:37;101959.56;;;11.95;100.00
64192;BME280;50497;50.720;-2.084;2022-07-23T04:00:13;101959.50;;;11.97;100.00
64192;BME280;50497;50.720;-2.084;2022-07-23T04:02:43;101964.56;;;12.06;100.00
64192;BME280;50497;50.720;-2.084;2022-07-23T04:05:13;101963.69;;;12.06;100.00
64192;BME280;50497;50.720;-2.084;2022-07-23T04:07:43;101952.66;;;11.87;100.00
64192;BME280;50497;50.720;-2.084;2022-07-23T04:10:08;101954.69;;;12.07;100.00
64192;BME280;50497;50.720;-2.084;2022-07-23T04:12:34;101949.28;;;12.08;100.00
64192;BME280;50497;50.720;-2.084;2022-07-23T04:15:01;101944.28;;;11.97;100.00
64192;BME280;50497;50.720;-2.084;2022-07-23T04:17:30;101955.28;;;11.88;100.00
64192;BME280;50497;50.720;-2.084;2022-07-23T04:19:58;101960.03;;;11.80;100.00
64192;BME280;50497;50.720;-2.084;2022-07-23T04:22:24;101961.84;;;11.79;100.00
64192;BME280;50497;50.720;-2.084;2022-07-23T04:24:53;101965.50;;;11.77;100.00
64192;BME280;50497;50.720;-2.084;2022-07-23T04:27:22;101967.75;;;11.62;100.00
64192;BME280;50497;50.720;-2.084;2022-07-23T04:29:48;101985.44;;;11.68;100.00
64192;BME280;50497;50.720;-2.084;2022-07-23T04:32:13;101988.13;;;11.68;100.00
64192;BME280;50497;50.720;-2.084;2022-07-23T04:34:42;101987.16;;;11.71;100.00
64192;BME280;50497;50.720;-2.084;2022-07-23T04:37:08;101980.91;;;11.70;100.00
64192;BME280;50497;50.720;-2.084;2022-07-23T04:39:33;101995.47;;;11.61;100.00
64192;BME280;50497;50.720;-2.084;2022-07-23T04:42:02;101990.91;;;11.65;100.00
64192;BME280;50497;50.720;-2.084;2022-07-23T04:44:31;101997.19;;;11.64;100.00
64192;BME280;50497;50.720;-2.084;2022-07-23T04:46:57;101988.84;;;11.73;100.00
64192;BME280;50497;50.720;-2.084;2022-07-23T04:49:27;101990.38;;;11.82;100.00
64192;BME280;50497;50.720;-2.084;2022-07-23T04:51:56;101985.94;;;11.81;100.00
64192;BME280;50497;50.720;-2.084;2022-07-23T04:54:24;101988.75;;;11.76;100.00
64192;BME280;50497;50.720;-2.084;2022-07-23T04:56:52;101992.44;;;11.74;100.00
64192;BME280;50497;50.720;-2.084;2022-07-23T04:59:17;101992.34;;;11.75;100.00
64192;BME280;50497;50.720;-2.084;2022-07-23T05:01:49;101985.34;;;11.71;100.00
64192;BME280;50497;50.720;-2.084;2022-07-23T05:04:15;101997.03;;;11.69;100.00
64192;BME280;50497;50.720;-2.084;2022-07-23T05:06:44;101992.25;;;11.78;100.00
64192;BME280;50497;50.720;-2.084;2022-07-23T05:09:10;101993.94;;;11.82;100.00
64192;BME280;50497;50.720;-2.084;2022-07-23T05:11:35;101991.19;;;11.84;100.00
64192;BME280;50497;50.720;-2.084;2022-07-23T05:14:04;101988.41;;;11.87;100.00
64192;BME280;50497;50.720;-2.084;2022-07-23T05:16:30;101972.66;;;11.76;100.00
64192;BME280;50497;50.720;-2.084;2022-07-23T05:19:02;101993.59;;;11.93;100.00
64192;BME280;50497;50.720;-2.084;2022-07-23T05:21:31;101983.72;;;11.95;100.00
64192;BME280;50497;50.720;-2.084;2022-07-23T05:23:57;101988.94;;;11.98;100.00
64192;BME280;50497;50.720;-2.084;2022-07-23T05:26:23;101987.75;;;12.09;100.00
64192;BME280;50497;50.720;-2.084;2022-07-23T05:28:49;101985.72;;;12.15;100.00
64192;BME280;50497;50.720;-2.084;2022-07-23T05:31:15;101980.34;;;12.15;100.00
64192;BME280;50497;50.720;-2.084;2022-07-23T05:33:47;101988.44;;;12.14;100.00
64192;BME280;50497;50.720;-2.084;2022-07-23T05:36:15;101986.69;;;12.13;100.00
64192;BME280;50497;50.720;-2.084;2022-07-23T05:38:41;101989.88;;;12.24;100.00
64192;BME280;50497;50.720;-2.084;2022-07-23T05:41:09;101994.19;;;12.28;100.00
64192;BME280;50497;50.720;-2.084;2022-07-23T05:43:37;101991.41;;;12.31;100.00
64192;BME280;50497;50.720;-2.084;2022-07-23T05:46:09;101989.72;;;12.29;100.00
64192;BME280;50497;50.720;-2.084;2022-07-23T05:48:35;101985.28;;;12.28;100.00
64192;BME280;50497;50.720;-2.084;2022-07-23T05:51:00;101981.59;;;12.32;100.00
64192;BME280;50497;50.720;-2.084;2022-07-23T05:53:32;101999.97;;;12.43;100.00
64192;BME280;50497;50.720;-2.084;2022-07-23T05:55:59;101994.50;;;12.46;100.00
64192;BME280;50497;50.720;-2.084;2022-07-23T05:58:29;101991.63;;;12.52;100.00
64192;BME280;50497;50.720;-2.084;2022-07-23T06:00:55;101986.94;;;12.57;100.00
64192;BME280;50497;50.720;-2.084;2022-07-23T06:03:20;101983.97;;;12.65;100.00
64192;BME280;50497;50.720;-2.084;2022-07-23T06:05:49;101974.03;;;12.68;100.00
64192;BME280;50497;50.720;-2.084;2022-07-23T06:08:15;101970.75;;;12.84;100.00
64192;BME280;50497;50.720;-2.084;2022-07-23T06:10:41;101973.78;;;12.98;100.00
64192;BME280;50497;50.720;-2.084;2022-07-23T06:13:06;101969.00;;;13.06;100.00
64192;BME280;50497;50.720;-2.084;2022-07-23T06:15:32;101961.34;;;13.43;100.00
64192;BME280;50497;50.720;-2.084;2022-07-23T06:17:58;101965.09;;;14.05;100.00
64192;BME280;50497;50.720;-2.084;2022-07-23T06:20:23;101963.50;;;14.42;100.00
64192;BME280;50497;50.720;-2.084;2022-07-23T06:22:49;101949.88;;;14.86;100.00
64192;BME280;50497;50.720;-2.084;2022-07-23T06:25:14;101962.00;;;15.34;100.00
64192;BME280;50497;50.720;-2.084;2022-07-23T06:27:42;101949.66;;;15.48;100.00
64192;BME280;50497;50.720;-2.084;2022-07-23T06:30:08;101948.50;;;15.90;100.00
64192;BME280;50497;50.720;-2.084;2022-07-23T06:32:33;101972.19;;;16.37;100.00
64192;BME280;50497;50.720;-2.084;2022-07-23T06:34:59;101974.88;;;16.55;100.00
64192;BME280;50497;50.720;-2.084;2022-07-23T06:37:25;101979.81;;;16.64;100.00
64192;BME280;50497;50.720;-2.084;2022-07-23T06:39:51;101984.31;;;16.98;100.00
64192;BME280;50497;50.720;-2.084;2022-07-23T06:42:16;101994.31;;;16.79;100.00
64192;BME280;50497;50.720;-2.084;2022-07-23T06:44:42;101994.13;;;17.49;100.00
64192;BME280;50497;50.720;-2.084;2022-07-23T06:47:08;101997.09;;;17.92;100.00
64192;BME280;50497;50.720;-2.084;2022-07-23T06:49:36;101992.75;;;18.50;100.00
64192;BME280;50497;50.720;-2.084;2022-07-23T06:52:01;101985.66;;;18.92;100.00
64192;BME280;50497;50.720;-2.084;2022-07-23T06:54:27;101982.13;;;18.76;100.00
64192;BME280;50497;50.720;-2.084;2022-07-23T06:56:53;101974.00;;;19.19;100.00
64192;BME280;50497;50.720;-2.084;2022-07-23T06:59:21;101960.88;;;19.54;100.00
64192;BME280;50497;50.720;-2.084;2022-07-23T07:01:49;101968.13;;;19.54;100.00
64192;BME280;50497;50.720;-2.084;2022-07-23T07:04:16;101964.63;;;19.81;100.00
64192;BME280;50497;50.720;-2.084;2022-07-23T07:06:42;101963.97;;;19.90;100.00
64192;BME280;50497;50.720;-2.084;2022-07-23T07:09:07;101955.47;;;20.22;100.00
64192;BME280;50497;50.720;-2.084;2022-07-23T07:11:33;101942.44;;;20.14;100.00
64192;BME280;50497;50.720;-2.084;2022-07-23T07:13:58;101963.47;;;20.51;100.00
64192;BME280;50497;50.720;-2.084;2022-07-23T07:16:24;101959.75;;;20.39;100.00
64192;BME280;50497;50.720;-2.084;2022-07-23T07:18:49;101971.16;;;20.57;100.00
64192;BME280;50497;50.720;-2.084;2022-07-23T07:21:18;101958.72;;;20.67;100.00
64192;BME280;50497;50.720;-2.084;2022-07-23T07:23:49;101956.69;;;20.43;100.00
64192;BME280;50497;50.720;-2.084;2022-07-23T07:26:15;101955.53;;;20.60;100.00
64192;BME280;50497;50.720;-2.084;2022-07-23T07:28:40;101952.38;;;21.05;100.00
64192;BME280;50497;50.720;-2.084;2022-07-23T07:31:06;101961.81;;;21.25;100.00
64192;BME280;50497;50.720;-2.084;2022-07-23T07:33:41;101963.41;;;21.28;100.00
64192;BME280;50497;50.720;-2.084;2022-07-23T07:36:07;101957.56;;;21.58;100.00
64192;BME280;50497;50.720;-2.084;2022-07-23T07:38:33;101962.16;;;21.57;100.00
64192;BME280;50497;50.720;-2.084;2022-07-23T07:40:58;101965.81;;;21.93;100.00
64192;BME280;50497;50.720;-2.084;2022-07-23T07:43:24;101962.31;;;22.15;100.00
64192;BME280;50497;50.720;-2.084;2022-07-23T07:45:49;101954.41;;;22.70;100.00
64192;BME280;50497;50.720;-2.084;2022-07-23T07:48:15;101953.22;;;23.09;100.00
64192;BME280;50497;50.720;-2.084;2022-07-23T07:50:41;101953.69;;;23.25;100.00
64192;BME280;50497;50.720;-2.084;2022-07-23T07:53:06;101948.38;;;22.90;100.00
64192;BME280;50497;50.720;-2.084;2022-07-23T07:55:38;101950.47;;;23.31;100.00
64192;BME280;50497;50.720;-2.084;2022-07-23T07:58:04;101946.72;;;23.32;100.00
64192;BME280;50497;50.720;-2.084;2022-07-23T08:00:34;101943.00;;;23.45;100.00
64192;BME280;50497;50.720;-2.084;2022-07-23T08:03:04;101953.34;;;23.73;100.00
64192;BME280;50497;50.720;-2.084;2022-07-23T08:05:34;101954.03;;;23.98;100.00
64192;BME280;50497;50.720;-2.084;2022-07-23T08:08:00;101945.66;;;24.11;98.94
64192;BME280;50497;50.720;-2.084;2022-07-23T08:10:26;101944.63;;;23.91;100.00
64192;BME280;50497;50.720;-2.084;2022-07-23T08:12:56;101945.69;;;23.56;100.00
64192;BME280;50497;50.720;-2.084;2022-07-23T08:15:23;101942.31;;;24.49;99.78
64192;BME280;50497;50.720;-2.084;2022-07-23T08:17:49;101937.66;;;23.87;96.29
64192;BME280;50497;50.720;-2.084;2022-07-23T08:20:21;101943.72;;;23.58;100.00
64192;BME280;50497;50.720;-2.084;2022-07-23T08:22:55;101940.88;;;23.92;100.00
64192;BME280;50497;50.720;-2.084;2022-07-23T08:25:30;101942.69;;;24.03;100.00
64192;BME280;50497;50.720;-2.084;2022-07-23T08:27:58;101937.63;;;23.98;100.00
64192;BME280;50497;50.720;-2.084;2022-07-23T08:30:27;101943.00;;;24.21;99.14
64192;BME280;50497;50.720;-2.084;2022-07-23T08:32:58;101945.66;;;25.15;95.67
64192;BME280;50497;50.720;-2.084;2022-07-23T08:35:37;101949.06;;;24.97;89.52
64192;BME280;50497;50.720;-2.084;2022-07-23T08:38:08;101951.00;;;24.76;93.40
64192;BME280;50497;50.720;-2.084;2022-07-23T08:40:46;101952.72;;;24.34;91.80
64192;BME280;50497;50.720;-2.084;2022-07-23T08:43:20;101947.38;;;25.06;89.05
64192;BME280;50497;50.720;-2.084;2022-07-23T08:45:52;101950.59;;;24.90;87.57
64192;BME280;50497;50.720;-2.084;2022-07-23T08:48:22;101953.28;;;24.80;88.91
64192;BME280;50497;50.720;-2.084;2022-07-23T08:50:53;101952.13;;;24.31;93.25
64192;BME280;50497;50.720;-2.084;2022-07-23T08:53:26;101955.34;;;24.88;91.91
64192;BME280;50497;50.720;-2.084;2022-07-23T08:55:54;101959.81;;;24.58;92.59
64192;BME280;50497;50.720;-2.084;2022-07-23T08:58:21;101958.84;;;25.00;91.70
64192;BME280;50497;50.720;-2.084;2022-07-23T09:00:47;101951.66;;;25.30;94.69
64192;BME280;50497;50.720;-2.084;2022-07-23T09:03:22;101951.94;;;24.96;98.25
64192;BME280;50497;50.720;-2.084;2022-07-23T09:05:53;101944.84;;;25.24;93.88
64192;BME280;50497;50.720;-2.084;2022-07-23T09:08:23;101946.38;;;24.76;98.94
64192;BME280;50497;50.720;-2.084;2022-07-23T09:10:57;101950.97;;;24.54;99.36
64192;BME280;50497;50.720;-2.084;2022-07-23T09:15:52;101953.22;;;24.61;100.00
64192;BME280;50497;50.720;-2.084;2022-07-23T09:18:27;101944.69;;;24.85;99.46
64192;BME280;50497;50.720;-2.084;2022-07-23T09:21:06;101952.53;;;25.30;99.46
64192;BME280;50497;50.720;-2.084;2022-07-23T09:23:47;101944.38;;;26.28;93.63
64192;BME280;50497;50.720;-2.084;2022-07-23T09:26:41;101948.16;;;25.97;95.28
64192;BME280;50497;50.720;-2.084;2022-07-23T09:29:18;101946.63;;;25.44;100.00
64192;BME280;50497;50.720;-2.084;2022-07-23T09:31:55;101948.16;;;26.27;92.10
64192;BME280;50497;50.720;-2.084;2022-07-23T09:34:23;101943.50;;;25.08;99.22
64192;BME280;50497;50.720;-2.084;2022-07-23T09:36:58;101940.69;;;24.89;97.87
64192;BME280;50497;50.720;-2.084;2022-07-23T09:39:33;101960.84;;;24.88;99.81
64192;BME280;50497;50.720;-2.084;2022-07-23T09:42:23;101951.09;;;25.05;100.00
64192;BME280;50497;50.720;-2.084;2022-07-23T09:44:55;101962.53;;;24.79;100.00
64192;BME280;50497;50.720;-2.084;2022-07-23T09:47:27;101961.47;;;25.01;100.00
64192;BME280;50497;50.720;-2.084;2022-07-23T09:50:05;101940.44;;;24.50;100.00
64192;BME280;50497;50.720;-2.084;2022-07-23T09:52:49;101946.38;;;24.34;100.00
64192;BME280;50497;50.720;-2.084;2022-07-23T09:55:17;101949.38;;;25.04;100.00
64192;BME280;50497;50.720;-2.084;2022-07-23T09:57:43;101947.28;;;24.86;100.00
64192;BME280;50497;50.720;-2.084;2022-07-23T10:00:15;101941.47;;;25.51;100.00
64192;BME280;50497;50.720;-2.084;2022-07-23T10:02:41;101951.03;;;25.26;100.00
64192;BME280;50497;50.720;-2.084;2022-07-23T10:05:09;101949.19;;;24.65;100.00
64192;BME280;50497;50.720;-2.084;2022-07-23T10:07:41;101935.09;;;25.00;100.00
64192;BME280;50497;50.720;-2.084;2022-07-23T10:10:13;101932.81;;;24.75;100.00
64192;BME280;50497;50.720;-2.084;2022-07-23T10:12:52;101937.44;;;24.32;100.00
64192;BME280;50497;50.720;-2.084;2022-07-23T10:15:41;101932.34;;;23.30;100.00
64192;BME280;50497;50.720;-2.084;2022-07-23T10:18:10;101927.72;;;23.42;100.00
64192;BME280;50497;50.720;-2.084;2022-07-23T10:20:37;101934.00;;;23.54;100.00
64192;BME280;50497;50.720;-2.084;2022-07-23T10:23:42;101930.09;;;23.79;100.00
64192;BME280;50497;50.720;-2.084;2022-07-23T10:31:52;101949.47;;;23.32;100.00
64192;BME280;50497;50.720;-2.084;2022-07-23T10:34:42;101949.47;;;23.32;100.00
64192;BME280;50497;50.720;-2.084;2022-07-23T10:37:22;101944.72;;;24.43;100.00
64192;BME280;50497;50.720;-2.084;2022-07-23T10:40:09;101950.81;;;25.08;100.00
64192;BME280;50497;50.720;-2.084;2022-07-23T10:42:39;101945.44;;;25.27;100.00
64192;BME280;50497;50.720;-2.084;2022-07-23T10:45:32;101962.94;;;25.46;100.00
64192;BME280;50497;50.720;-2.084;2022-07-23T10:48:22;101959.47;;;25.44;100.00
64192;BME280;50497;50.720;-2.084;2022-07-23T10:51:10;101958.28;;;25.27;100.00
64192;BME280;50497;50.720;-2.084;2022-07-23T10:59:22;101977.94;;;23.85;100.00
64192;BME280;50497;50.720;-2.084;2022-07-23T11:01:49;101973.75;;;24.34;100.00
64192;BME280;50497;50.720;-2.084;2022-07-23T11:04:15;101982.13;;;23.89;100.00
64192;BME280;50497;50.720;-2.084;2022-07-23T11:09:28;101980.88;;;23.15;100.00
64192;BME280;50497;50.720;-2.084;2022-07-23T11:15:10;101973.91;;;22.88;100.00
64192;BME280;50497;50.720;-2.084;2022-07-23T11:17:39;101978.41;;;23.23;100.00
64192;BME280;50497;50.720;-2.084;2022-07-23T11:20:30;101979.50;;;23.32;100.00
64192;BME280;50497;50.720;-2.084;2022-07-23T11:22:58;101984.72;;;23.24;100.00
64192;BME280;50497;50.720;-2.084;2022-07-23T11:25:31;101994.03;;;23.99;100.00
64192;BME280;50497;50.720;-2.084;2022-07-23T11:28:10;101976.28;;;24.26;100.00
64192;BME280;50497;50.720;-2.084;2022-07-23T11:33:16;101980.75;;;25.00;100.00
64192;BME280;50497;50.720;-2.084;2022-07-23T11:35:45;101963.97;;;24.83;100.00
64192;BME280;50497;50.720;-2.084;2022-07-23T11:38:17;101975.38;;;24.58;100.00
64192;BME280;50497;50.720;-2.084;2022-07-23T11:40:57;101963.38;;;24.16;100.00
64192;BME280;50497;50.720;-2.084;2022-07-23T11:43:24;101971.00;;;23.69;100.00
64192;BME280;50497;50.720;-2.084;2022-07-23T11:45:53;101981.22;;;22.77;100.00
64192;BME280;50497;50.720;-2.084;2022-07-23T11:48:21;101970.56;;;22.96;100.00
64192;BME280;50497;50.720;-2.084;2022-07-23T11:50:47;101974.47;;;22.47;100.00
64192;BME280;50497;50.720;-2.084;2022-07-23T11:53:13;101981.84;;;22.09;100.00
64192;BME280;50497;50.720;-2.084;2022-07-23T11:55:39;101983.53;;;22.23;100.00
64192;BME280;50497;50.720;-2.084;2022-07-23T11:58:05;101979.50;;;22.05;100.00
64192;BME280;50497;50.720;-2.084;2022-07-23T12:00:30;101966.38;;;22.34;100.00
64192;BME280;50497;50.720;-2.084;2022-07-23T12:03:04;101970.41;;;22.64;100.00
64192;BME280;50497;50.720;-2.084;2022-07-23T12:05:34;101964.56;;;22.57;100.00
64192;BME280;50497;50.720;-2.084;2022-07-23T12:08:04;101964.47;;;22.70;100.00
64192;BME280;50497;50.720;-2.084;2022-07-23T12:10:42;101958.06;;;22.36;100.00
64192;BME280;50497;50.720;-2.084;2022-07-23T12:13:17;101947.91;;;22.38;100.00
64192;BME280;50497;50.720;-2.084;2022-07-23T12:15:46;101962.34;;;22.62;100.00
64192;BME280;50497;50.720;-2.084;2022-07-23T12:18:18;101960.34;;;22.64;100.00
64192;BME280;50497;50.720;-2.084;2022-07-23T12:21:04;101953.44;;;22.25;100.00
64192;BME280;50497;50.720;-2.084;2022-07-23T12:23:31;101948.44;;;22.54;100.00
64192;BME280;50497;50.720;-2.084;2022-07-23T12:26:01;101952.19;;;22.76;100.00
64192;BME280;50497;50.720;-2.084;2022-07-23T12:28:31;101951.44;;;22.85;100.00
64192;BME280;50497;50.720;-2.084;2022-07-23T12:31:02;101961.50;;;22.84;100.00
64192;BME280;50497;50.720;-2.084;2022-07-23T12:33:37;101951.56;;;23.40;100.00
64192;BME280;50497;50.720;-2.084;2022-07-23T12:36:10;101953.44;;;22.72;100.00
64192;BME280;50497;50.720;-2.084;2022-07-23T12:38:47;101952.66;;;22.47;100.00
64192;BME280;50497;50.720;-2.084;2022-07-23T12:41:14;101955.50;;;22.57;100.00
64192;BME280;50497;50.720;-2.084;2022-07-23T12:43:45;101963.22;;;22.63;100.00
64192;BME280;50497;50.720;-2.084;2022-07-23T12:46:16;101963.59;;;22.69;100.00
64192;BME280;50497;50.720;-2.084;2022-07-23T12:48:50;101958.41;;;22.78;100.00
64192;BME280;50497;50.720;-2.084;2022-07-23T12:51:32;101955.16;;;22.73;100.00
64192;BME280;50497;50.720;-2.084;2022-07-23T12:54:04;101947.84;;;22.73;100.00
64192;BME280;50497;50.720;-2.084;2022-07-23T12:56:36;101961.38;;;22.97;100.00
64192;BME280;50497;50.720;-2.084;2022-07-23T12:59:05;101956.63;;;22.65;100.00
64192;BME280;50497;50.720;-2.084;2022-07-23T13:01:37;101957.38;;;22.56;100.00
64192;BME280;50497;50.720;-2.084;2022-07-23T13:06:34;101948.97;;;23.04;100.00